Ningbo Seal — VRJD3 — position and weather

sailwx.info

Track history (hours):
 
Tides and Currents Weather Stations Pressure Air Temp Water Temp Dewpoint Dewpoint Depression Visibility Wind Speed Wind Dir Waves Ship Positions

Ningbo Seal

Last reported at 2016-Jul-24 21:26 UTC. Time now 2016-Jul-25 08:09 UTC.
Position N 01°16' E 104°11'.

Length 224 m; draft 13.2 m.

Type: Cargo ship. MMSI: 477628100.

Date/timePositionNaut miles runAvg speedWind from/ knotsBaromVisibWave heightAir tempDewpointWater temp
2016-Jul-24 21:26N 01°16' E 104°11'1112.3
2016-Jul-24 20:33N 01°16' E 104°00'1 0.7
2016-Jul-24 19:33N 01°17' E 103°60'0 0.2
2016-Jul-24 18:21N 01°17' E 103°60'0 0.0
2016-Jul-24 17:27N 01°17' E 103°60'0 0.1
2016-Jul-24 16:33N 01°17' E 103°60'0 0.0
2016-Jul-24 14:21N 01°17' E 103°60'0 0.0
2016-Jul-24 13:33N 01°17' E 103°60'0 0.0
2016-Jul-24 12:09N 01°17' E 103°60'0 0.0
2016-Jul-24 11:21N 01°17' E 103°60'0 0.0
2016-Jul-24 10:09N 01°17' E 103°60'0 0.1
2016-Jul-24 09:27N 01°17' E 103°60'0 0.1
2016-Jul-24 08:33N 01°17' E 103°60'0 0.0
2016-Jul-24 07:27N 01°17' E 103°60'0 0.1
2016-Jul-24 06:27N 01°17' E 103°60'0 0.0
2016-Jul-24 05:33N 01°17' E 103°60'0 0.0
2016-Jul-24 04:33N 01°17' E 103°60'0 0.1
2016-Jul-24 01:33N 01°17' E 103°60'0 0.0
2016-Jul-24 00:33N 01°17' E 103°60'0 0.0
2016-Jul-23 23:33N 01°17' E 103°60'0 0.0
2016-Jul-23 22:31N 01°17' E 103°60'0 0.0
2016-Jul-23 21:19N 01°17' E 103°60'0 0.0
2016-Jul-23 20:34N 01°17' E 103°60'1 0.6
2016-Jul-23 19:33N 01°16' E 103°60'4 3.7
2016-Jul-23 18:33N 01°14' E 103°57'8 7.7
2016-Jul-23 17:32N 01°11' E 103°50'64 9.0
2016-Jul-23 10:23N 01°36' E 102°51'1011.7
2016-Jul-23 09:31N 01°41' E 102°42'1111.8
2016-Jul-23 08:32N 01°46' E 102°32'1212.0
2016-Jul-23 07:32N 01°51' E 102°21'  
Track history (hours):
 
Tides and Currents Weather Stations Pressure Air Temp Water Temp Dewpoint Dewpoint Depression Visibility Wind Speed Wind Dir Waves Ship Positions

Ningbo Seal

Last reported at 2016-Jul-24 21:26 UTC. Time now 2016-Jul-25 08:09 UTC.
Position N 01°16' E 104°11'.

Length 224 m; draft 13.2 m.

Type: Cargo ship. MMSI: 477628100.

Date/timePositionNaut miles runAvg speedWind from/ knotsBaromVisibWave heightAir tempDewpointWater temp
2016-Jul-24 21:26N 01°16' E 104°11'1112.3
2016-Jul-24 20:33N 01°16' E 104°00'1 0.7
2016-Jul-24 19:33N 01°17' E 103°60'0 0.2
2016-Jul-24 18:21N 01°17' E 103°60'0 0.0
2016-Jul-24 17:27N 01°17' E 103°60'0 0.1
2016-Jul-24 16:33N 01°17' E 103°60'0 0.0
2016-Jul-24 14:21N 01°17' E 103°60'0 0.0
2016-Jul-24 13:33N 01°17' E 103°60'0 0.0
2016-Jul-24 12:09N 01°17' E 103°60'0 0.0
2016-Jul-24 11:21N 01°17' E 103°60'0 0.0
2016-Jul-24 10:09N 01°17' E 103°60'0 0.1
2016-Jul-24 09:27N 01°17' E 103°60'0 0.1
2016-Jul-24 08:33N 01°17' E 103°60'0 0.0
2016-Jul-24 07:27N 01°17' E 103°60'0 0.1
2016-Jul-24 06:27N 01°17' E 103°60'0 0.0
2016-Jul-24 05:33N 01°17' E 103°60'0 0.0
2016-Jul-24 04:33N 01°17' E 103°60'0 0.1
2016-Jul-24 01:33N 01°17' E 103°60'0 0.0
2016-Jul-24 00:33N 01°17' E 103°60'0 0.0
2016-Jul-23 23:33N 01°17' E 103°60'0 0.0
2016-Jul-23 22:31N 01°17' E 103°60'0 0.0
2016-Jul-23 21:19N 01°17' E 103°60'0 0.0
2016-Jul-23 20:34N 01°17' E 103°60'1 0.6
2016-Jul-23 19:33N 01°16' E 103°60'4 3.7
2016-Jul-23 18:33N 01°14' E 103°57'8 7.7
2016-Jul-23 17:32N 01°11' E 103°50'64 9.0
2016-Jul-23 10:23N 01°36' E 102°51'1011.7
2016-Jul-23 09:31N 01°41' E 102°42'1111.8
2016-Jul-23 08:32N 01°46' E 102°32'1212.0
2016-Jul-23 07:32N 01°51' E 102°21'  

Dump ship's entire track history